createdAt,value
2018-10-06T00:00:46.356Z,97246.02
2018-10-06T00:03:15.134Z,97249.86
2018-10-06T00:05:43.748Z,97251.82
2018-10-06T00:08:12.404Z,97250.75
2018-10-06T00:10:41.500Z,97246.72
2018-10-06T00:13:10.081Z,97241.68
2018-10-06T00:15:38.671Z,97238.84
2018-10-06T00:18:07.419Z,97242.78
2018-10-06T00:20:35.998Z,97234.09
2018-10-06T00:23:04.592Z,97241.67
2018-10-06T00:25:33.199Z,97232.36
2018-10-06T00:28:02.096Z,97231.64
2018-10-06T00:30:31.159Z,97228.91
2018-10-06T00:32:59.848Z,97223.33
2018-10-06T00:35:28.439Z,97228.70
2018-10-06T00:37:57.031Z,97228.16
2018-10-06T00:40:25.644Z,97221.88
2018-10-06T00:42:54.220Z,97219.61
2018-10-06T00:45:22.794Z,97217.16
2018-10-06T00:47:51.494Z,97215.67
2018-10-06T00:50:20.196Z,97214.84
2018-10-06T00:52:48.795Z,97210.84
2018-10-06T00:55:17.412Z,97207.09
2018-10-06T00:57:45.975Z,97199.88
2018-10-06T01:00:14.948Z,97193.67
2018-10-06T01:02:43.559Z,97187.30
2018-10-06T01:05:12.136Z,97182.81
2018-10-06T01:07:40.767Z,97182.02
2018-10-06T01:10:09.748Z,97180.36
2018-10-06T01:12:38.328Z,97179.09
2018-10-06T01:15:06.956Z,97171.33
2018-10-06T01:17:35.699Z,97166.78
2018-10-06T01:20:04.264Z,97165.95
2018-10-06T01:22:32.840Z,97169.78
2018-10-06T01:25:01.899Z,97167.89
2018-10-06T01:27:30.508Z,97171.70
2018-10-06T01:29:59.079Z,97170.19
2018-10-06T01:32:27.799Z,97163.44
2018-10-06T01:34:56.364Z,97163.16
2018-10-06T01:37:24.947Z,97159.05
2018-10-06T01:39:53.805Z,97150.20
2018-10-06T01:42:22.364Z,97144.66
2018-10-06T01:44:50.927Z,97135.37
2018-10-06T01:47:19.769Z,97144.00
2018-10-06T01:49:48.357Z,97138.00
2018-10-06T01:52:16.971Z,97139.55
2018-10-06T01:54:45.612Z,97141.58
2018-10-06T01:57:14.304Z,97144.03
2018-10-06T01:59:42.869Z,97140.66
2018-10-06T02:02:11.448Z,97140.20
2018-10-06T02:04:40.017Z,97137.38
2018-10-06T02:07:08.595Z,97133.72
2018-10-06T02:09:37.272Z,97138.00
2018-10-06T02:12:06.208Z,97138.34
2018-10-06T02:14:34.776Z,97146.44
2018-10-06T02:17:03.495Z,97145.59
2018-10-06T02:19:32.089Z,97144.27
2018-10-06T02:22:00.656Z,97144.55
2018-10-06T02:24:29.285Z,97147.47
2018-10-06T02:26:57.864Z,97155.73
2018-10-06T02:29:26.456Z,97154.02
2018-10-06T02:31:55.312Z,97160.11
2018-10-06T02:34:23.896Z,97163.22
2018-10-06T02:36:52.463Z,97162.66
2018-10-06T02:39:21.172Z,97156.36
2018-10-06T02:41:49.845Z,97155.25
2018-10-06T02:44:18.831Z,97156.36
2018-10-06T02:46:47.491Z,97156.67
2018-10-06T02:49:16.060Z,97152.23
2018-10-06T02:51:44.635Z,97149.86
2018-10-06T02:54:13.218Z,97151.82
2018-10-06T02:56:41.775Z,97147.17
2018-10-06T02:59:10.363Z,97142.00
2018-10-06T03:01:39.257Z,97135.06
2018-10-06T03:04:07.821Z,97130.34
2018-10-06T03:06:36.400Z,97125.80
2018-10-06T03:09:06.643Z,97129.83
2018-10-06T03:11:35.216Z,97117.06
2018-10-06T03:14:03.800Z,97118.82
2018-10-06T03:16:33.583Z,97125.09
2018-10-06T03:19:02.222Z,97122.52
2018-10-06T03:21:30.805Z,97118.34
2018-10-06T03:23:59.692Z,97100.68
2018-10-06T03:26:28.316Z,97100.13
2018-10-06T03:28:56.911Z,97095.58
2018-10-06T03:31:26.565Z,97101.67
2018-10-06T03:33:55.134Z,97105.61
2018-10-06T03:36:23.693Z,97100.41
2018-10-06T03:38:52.692Z,97110.44
2018-10-06T03:41:21.267Z,97101.23
2018-10-06T03:43:49.854Z,97094.58
2018-10-06T03:46:18.452Z,97094.28
2018-10-06T03:48:47.031Z,97094.20
2018-10-06T03:51:16.169Z,97100.31
2018-10-06T03:53:45.260Z,97092.39
2018-10-06T03:56:13.844Z,97094.11
2018-10-06T03:58:42.479Z,97086.17
2018-10-06T04:01:11.084Z,97085.35
2018-10-06T04:03:39.644Z,97083.91
2018-10-06T04:06:08.264Z,97084.73
2018-10-06T04:08:36.872Z,97083.78
2018-10-06T04:11:05.477Z,97093.23
2018-10-06T04:13:34.042Z,97092.33
2018-10-06T04:16:02.652Z,97094.92
2018-10-06T04:18:31.253Z,97089.00
2018-10-06T04:20:59.839Z,97092.44
2018-10-06T04:23:28.494Z,97084.07
2018-10-06T04:25:57.076Z,97089.89
2018-10-06T04:28:25.925Z,97083.07
2018-10-06T04:30:54.627Z,97075.05
2018-10-06T04:33:23.297Z,97078.97
2018-10-06T04:35:51.860Z,97078.24
2018-10-06T04:38:20.464Z,97076.14
2018-10-06T04:40:49.044Z,97079.52
2018-10-06T04:43:17.943Z,97072.39
2018-10-06T04:45:46.644Z,97072.22
2018-10-06T04:48:15.211Z,97070.12
2018-10-06T04:50:43.791Z,97068.12
2018-10-06T04:53:12.444Z,97073.84
2018-10-06T04:55:41.007Z,97067.63
2018-10-06T04:58:09.584Z,97071.11
2018-10-06T05:00:38.423Z,97065.53
2018-10-06T05:03:07.047Z,97067.63
2018-10-06T05:05:35.859Z,97062.98
2018-10-06T05:08:05.019Z,97060.53
2018-10-06T05:10:33.588Z,97059.71
2018-10-06T05:13:02.172Z,97057.27
2018-10-06T05:15:30.933Z,97065.47
2018-10-06T05:17:59.520Z,97062.02
2018-10-06T05:20:28.136Z,97057.81
2018-10-06T05:22:56.752Z,97060.81
2018-10-06T05:25:25.324Z,97060.09
2018-10-06T05:27:53.924Z,97056.78
2018-10-06T05:30:22.855Z,97057.71
2018-10-06T05:32:51.419Z,97057.54
2018-10-06T05:35:20.083Z,97060.53
2018-10-06T05:37:48.727Z,97064.19
2018-10-06T05:40:17.353Z,97058.20
2018-10-06T05:42:45.960Z,97060.19
2018-10-06T05:45:14.841Z,97058.20
2018-10-06T05:47:43.456Z,97068.39
2018-10-06T05:50:12.196Z,97077.00
2018-10-06T05:52:40.809Z,97074.94
2018-10-06T05:55:09.395Z,97079.86
2018-10-06T05:57:38.155Z,97081.42
2018-10-06T06:00:06.915Z,97077.59
2018-10-06T06:02:35.492Z,97080.72
2018-10-06T06:05:04.175Z,97073.70
2018-10-06T06:07:32.878Z,97076.97
2018-10-06T06:10:01.554Z,97075.80
2018-10-06T06:12:30.072Z,97076.42
2018-10-06T06:14:59.232Z,97081.83
2018-10-06T06:17:27.806Z,97086.44
2018-10-06T06:19:56.518Z,97082.33
2018-10-06T06:22:25.280Z,97078.23
2018-10-06T06:24:54.016Z,97076.08
2018-10-06T06:27:22.588Z,97077.09
2018-10-06T06:29:51.591Z,97079.73
2018-10-06T06:32:20.226Z,97078.92
2018-10-06T06:34:48.919Z,97075.53
2018-10-06T06:37:17.519Z,97077.46
2018-10-06T06:39:46.180Z,97068.51
2018-10-06T06:42:14.798Z,97059.20
2018-10-06T06:44:43.448Z,97065.22
2018-10-06T06:47:12.047Z,97062.58
2018-10-06T06:49:40.635Z,97064.13
2018-10-06T06:52:09.239Z,97065.78
2018-10-06T06:54:37.819Z,97064.66
2018-10-06T06:57:07.477Z,97063.09
2018-10-06T06:59:36.120Z,97057.96
2018-10-06T07:02:04.767Z,97062.48
2018-10-06T07:04:33.504Z,97064.55
2018-10-06T07:07:02.112Z,97059.61
2018-10-06T07:09:30.687Z,97060.25
2018-10-06T07:11:59.280Z,97063.62
2018-10-06T07:14:27.915Z,97064.78
2018-10-06T07:16:56.523Z,97060.50
2018-10-06T07:19:25.219Z,97064.98
2018-10-06T07:21:53.828Z,97064.98
2018-10-06T07:24:22.400Z,97063.90
2018-10-06T07:26:50.983Z,97063.27
2018-10-06T07:29:19.684Z,97060.38
2018-10-06T07:31:48.261Z,97060.02
2018-10-06T07:34:16.815Z,97059.05
2018-10-06T07:36:45.528Z,97065.69
2018-10-06T07:39:14.108Z,97059.67
2018-10-06T07:41:42.760Z,97053.69
2018-10-06T07:44:11.366Z,97060.97
2018-10-06T07:46:39.960Z,97059.76
2018-10-06T07:49:08.728Z,97055.78
2018-10-06T07:51:37.459Z,97054.56
2018-10-06T07:54:06.048Z,97068.43
2018-10-06T07:56:34.749Z,97064.67
2018-10-06T07:59:03.397Z,97063.50
2018-10-06T08:01:31.940Z,97067.20
2018-10-06T08:04:00.572Z,97071.84
2018-10-06T08:06:29.231Z,97070.62
2018-10-06T08:08:57.796Z,97063.34
2018-10-06T08:11:26.372Z,97056.08
2018-10-06T08:13:54.992Z,97060.96
2018-10-06T08:16:23.553Z,97055.98
2018-10-06T08:18:52.116Z,97046.35
2018-10-06T08:21:20.819Z,97049.98
2018-10-06T08:23:49.400Z,97048.88
2018-10-06T08:26:18.099Z,97043.08
2018-10-06T08:28:46.802Z,97040.31
2018-10-06T08:31:15.378Z,97042.65
2018-10-06T08:33:43.987Z,97040.53
2018-10-06T08:36:12.620Z,97033.98
2018-10-06T08:38:41.184Z,97034.98
2018-10-06T08:41:09.959Z,97029.59
2018-10-06T08:43:38.740Z,97029.14
2018-10-06T08:46:07.339Z,97035.24
2018-10-06T08:48:35.904Z,97029.19
2018-10-06T08:51:04.584Z,97034.73
2018-10-06T08:53:33.140Z,97025.66
2018-10-06T08:56:01.780Z,97030.48
2018-10-06T08:58:30.348Z,97032.80
2018-10-06T09:00:58.960Z,97028.74
2018-10-06T09:03:27.571Z,97031.88
2018-10-06T09:05:56.173Z,97024.70
2018-10-06T09:08:24.736Z,97022.52
2018-10-06T09:10:53.317Z,97026.86
2018-10-06T09:13:21.915Z,97023.20
2018-10-06T09:15:50.507Z,97018.12
2018-10-06T09:18:19.156Z,97021.72
2018-10-06T09:20:47.848Z,97022.51
2018-10-06T09:23:16.419Z,97016.64
2018-10-06T09:25:44.984Z,97015.76
2018-10-06T09:28:13.649Z,97016.16
2018-10-06T09:30:42.196Z,97014.32
2018-10-06T09:33:10.760Z,97009.91
2018-10-06T09:35:39.348Z,97012.13
2018-10-06T09:38:08.219Z,96997.27
2018-10-06T09:40:36.823Z,96998.23
2018-10-06T09:43:05.539Z,96991.00
2018-10-06T09:45:34.150Z,96984.80
2018-10-06T09:48:02.785Z,96984.74
2018-10-06T09:50:31.789Z,96982.78
2018-10-06T09:53:00.369Z,96978.90
2018-10-06T09:55:29.025Z,96977.17
2018-10-06T09:57:57.755Z,96973.16
2018-10-06T10:00:31.533Z,96969.39
2018-10-06T10:03:05.298Z,96970.59
2018-10-06T10:05:39.675Z,96970.80
2018-10-06T10:08:08.518Z,96962.02
2018-10-06T10:10:37.084Z,96963.94
2018-10-06T10:13:05.733Z,96962.58
2018-10-06T10:15:34.846Z,96957.45
2018-10-06T10:18:03.573Z,96955.35
2018-10-06T10:20:33.567Z,96954.11
2018-10-06T10:23:02.946Z,96953.31
2018-10-06T10:25:31.639Z,96947.67
2018-10-06T10:28:00.912Z,96942.90
2018-10-06T10:30:29.595Z,96946.23
2018-10-06T10:32:58.675Z,96937.41
2018-10-06T10:35:27.260Z,96942.33
2018-10-06T10:37:56.668Z,96938.77
2018-10-06T10:40:25.227Z,96932.66
2018-10-06T10:42:53.986Z,96935.11
2018-10-06T10:45:22.579Z,96937.00
2018-10-06T10:47:51.139Z,96935.89
2018-10-06T10:50:19.720Z,96934.59
2018-10-06T10:52:48.317Z,96932.41
2018-10-06T10:55:16.872Z,96927.41
2018-10-06T10:57:45.472Z,96923.88
2018-10-06T11:00:14.295Z,96924.68
2018-10-06T11:02:42.796Z,96922.23
2018-10-06T11:05:11.372Z,96919.21
2018-10-06T11:07:40.059Z,96917.65
2018-10-06T11:10:08.628Z,96912.77
2018-10-06T11:12:37.193Z,96910.64
2018-10-06T11:15:05.903Z,96907.22
2018-10-06T11:17:34.472Z,96907.52
2018-10-06T11:20:03.061Z,96904.80
2018-10-06T11:22:31.704Z,96899.23
2018-10-06T11:25:00.340Z,96891.75
2018-10-06T11:27:28.893Z,96888.93
2018-10-06T11:29:57.519Z,96889.08
2018-10-06T11:32:26.105Z,96892.80
2018-10-06T11:34:54.833Z,96885.94
2018-10-06T11:37:23.661Z,96874.02
2018-10-06T11:39:52.227Z,96875.45
2018-10-06T11:42:20.807Z,96862.45
2018-10-06T11:44:49.807Z,96856.30
2018-10-06T11:47:18.401Z,96855.25
2018-10-06T11:49:47.040Z,96854.59
2018-10-06T11:52:15.965Z,96842.31
2018-10-06T11:54:48.010Z,96839.95
2018-10-06T11:57:18.336Z,96836.14
2018-10-06T11:59:48.443Z,96815.78
2018-10-06T12:02:19.112Z,96819.36
2018-10-06T12:04:50.281Z,96811.05
2018-10-06T12:07:20.841Z,96813.19
2018-10-06T12:09:50.025Z,96806.83
2018-10-06T12:12:20.877Z,96794.87
2018-10-06T12:14:52.798Z,96794.98
2018-10-06T12:17:23.460Z,96795.42
2018-10-06T12:19:52.960Z,96802.01
2018-10-06T12:22:23.076Z,96803.42
2018-10-06T12:24:53.700Z,96805.67
2018-10-06T12:27:24.880Z,96796.40
2018-10-06T12:29:54.928Z,96791.34
2018-10-06T12:32:24.103Z,96786.48
2018-10-06T12:34:54.748Z,96785.50
2018-10-06T12:37:23.204Z,96777.89
2018-10-06T12:39:52.154Z,96778.63
2018-10-06T12:42:20.785Z,96773.80
2018-10-06T12:44:49.528Z,96774.81
2018-10-06T12:47:19.223Z,96768.28
2018-10-06T12:49:48.685Z,96770.25
2018-10-06T12:52:17.852Z,96772.52
2018-10-06T12:54:47.664Z,96765.67
2018-10-06T12:57:16.462Z,96762.13
2018-10-06T12:59:45.214Z,96764.76
2018-10-06T13:02:13.873Z,96759.08
2018-10-06T13:04:42.880Z,96762.13
2018-10-06T13:07:13.067Z,96754.95
2018-10-06T13:09:43.450Z,96754.50
2018-10-06T13:12:13.259Z,96749.76
2018-10-06T13:14:44.167Z,96746.02
2018-10-06T13:17:14.979Z,96740.36
2018-10-06T13:19:43.547Z,96738.91
2018-10-06T13:22:12.237Z,96737.75
2018-10-06T13:24:41.067Z,96737.09
2018-10-06T13:27:09.811Z,96741.13
2018-10-06T13:29:40.438Z,96741.52
2018-10-06T13:32:10.053Z,96741.03
2018-10-06T13:34:40.328Z,96746.42
2018-10-06T13:37:09.711Z,96740.70
2018-10-06T13:39:40.400Z,96743.67
2018-10-06T13:42:10.835Z,96743.82
2018-10-06T13:44:40.407Z,96740.21
2018-10-06T13:47:09.060Z,96739.40
2018-10-06T13:49:37.628Z,96733.16
2018-10-06T13:52:06.428Z,96732.91
2018-10-06T13:54:35.012Z,96730.34
2018-10-06T13:57:03.714Z,96735.34
2018-10-06T13:59:32.353Z,96730.85
2018-10-06T14:02:00.934Z,96732.02
2018-10-06T14:04:29.525Z,96729.55
2018-10-06T14:06:58.154Z,96727.46
2018-10-06T14:09:26.739Z,96725.55
2018-10-06T14:11:55.299Z,96731.37
2018-10-06T14:14:24.324Z,96721.66
2018-10-06T14:16:52.894Z,96721.03
2018-10-06T14:19:21.470Z,96729.11
2018-10-06T14:21:50.606Z,96730.23
2018-10-06T14:24:19.196Z,96733.79
2018-10-06T14:26:47.747Z,96730.73
2018-10-06T14:29:16.412Z,96729.59
2018-10-06T14:31:45.016Z,96724.08
2018-10-06T14:34:13.612Z,96723.91
2018-10-06T14:36:42.320Z,96721.31
2018-10-06T14:39:11.703Z,96718.86
2018-10-06T14:41:40.369Z,96712.08
2018-10-06T14:44:09.475Z,96718.38
2018-10-06T14:46:38.009Z,96715.30
2018-10-06T14:49:06.608Z,96705.92
2018-10-06T14:51:35.311Z,96707.85
2018-10-06T14:54:03.924Z,96710.91
2018-10-06T14:56:32.497Z,96712.38
2018-10-06T14:59:01.096Z,96707.67
2018-10-06T15:01:29.705Z,96705.88
2018-10-06T15:03:58.265Z,96711.36
2018-10-06T15:06:26.901Z,96711.38
2018-10-06T15:08:55.499Z,96705.69
2018-10-06T15:11:24.089Z,96707.61
2018-10-06T15:13:53.015Z,96707.44
2018-10-06T15:16:21.751Z,96706.45
2018-10-06T15:18:50.320Z,96703.50
2018-10-06T15:21:19.020Z,96700.24
2018-10-06T15:23:47.580Z,96697.66
2018-10-06T15:26:16.152Z,96695.71
2018-10-06T15:28:44.827Z,96694.39
2018-10-06T15:31:13.465Z,96694.06
2018-10-06T15:33:42.063Z,96695.67
2018-10-06T15:36:10.672Z,96697.25
2018-10-06T15:38:39.242Z,96696.88
2018-10-06T15:41:07.968Z,96695.92
2018-10-06T15:43:36.594Z,96694.03
2018-10-06T15:46:05.419Z,96688.24
2018-10-06T15:48:34.559Z,96691.30
2018-10-06T15:51:03.316Z,96690.97
2018-10-06T15:53:32.223Z,96687.88
2018-10-06T15:56:00.808Z,96689.61
2018-10-06T15:58:29.631Z,96686.64
2018-10-06T16:00:58.196Z,96682.94
2018-10-06T16:03:26.755Z,96689.57
2018-10-06T16:05:55.395Z,96685.01
2018-10-06T16:08:24.119Z,96682.42
2018-10-06T16:10:52.920Z,96680.44
2018-10-06T16:13:21.754Z,96678.16
2018-10-06T16:15:50.352Z,96681.39
2018-10-06T16:18:18.920Z,96676.95
2018-10-06T16:20:47.523Z,96673.72
2018-10-06T16:23:16.365Z,96675.72
2018-10-06T16:25:45.067Z,96675.20
2018-10-06T16:28:14.935Z,96674.52
2018-10-06T16:30:44.855Z,96675.63
2018-10-06T16:33:15.422Z,96676.80
2018-10-06T16:35:44.661Z,96674.64
2018-10-06T16:38:13.250Z,96674.94
2018-10-06T16:40:42.883Z,96677.00
2018-10-06T16:43:11.426Z,96683.59
2018-10-06T16:45:39.992Z,96678.92
2018-10-06T16:48:08.646Z,96679.99
2018-10-06T16:50:37.228Z,96681.66
2018-10-06T16:53:05.792Z,96675.90
2018-10-06T16:55:34.421Z,96682.12
2018-10-06T16:58:03.012Z,96684.27
2018-10-06T17:00:32.452Z,96674.98
2018-10-06T17:03:01.074Z,96675.09
2018-10-06T17:05:29.672Z,96685.06
2018-10-06T17:07:58.244Z,96689.03
2018-10-06T17:10:26.831Z,96691.75
2018-10-06T17:12:55.455Z,96694.12
2018-10-06T17:15:24.444Z,96696.98
2018-10-06T17:17:53.052Z,96690.81
2018-10-06T17:20:21.661Z,96682.38
2018-10-06T17:22:50.259Z,96684.59
2018-10-06T17:25:19.072Z,96680.98
2018-10-06T17:27:47.600Z,96680.61
2018-10-06T17:30:16.192Z,96672.55
2018-10-06T17:32:44.843Z,96673.84
2018-10-06T17:35:13.671Z,96672.45
2018-10-06T17:37:42.255Z,96672.55
2018-10-06T17:40:11.148Z,96668.05
2018-10-06T17:42:39.719Z,96665.38
2018-10-06T17:45:08.480Z,96670.70
2018-10-06T17:47:38.866Z,96667.11
2018-10-06T17:50:07.584Z,96668.05
2018-10-06T17:52:36.097Z,96667.80
2018-10-06T17:55:04.771Z,96668.19
2018-10-06T17:57:33.404Z,96669.38
2018-10-06T18:00:01.957Z,96662.55
2018-10-06T18:02:30.648Z,96667.28
2018-10-06T18:05:00.346Z,96665.64
2018-10-06T18:07:29.997Z,96672.11
2018-10-06T18:09:59.643Z,96671.84
2018-10-06T18:12:29.631Z,96671.56
2018-10-06T18:15:00.006Z,96679.17
2018-10-06T18:17:29.284Z,96679.09
2018-10-06T18:19:58.388Z,96679.77
2018-10-06T18:22:27.128Z,96678.67
2018-10-06T18:24:57.728Z,96680.16
2018-10-06T18:27:27.085Z,96687.57
2018-10-06T18:29:57.376Z,96693.19
2018-10-06T18:32:26.201Z,96690.42
2018-10-06T18:34:56.051Z,96688.90
2018-10-06T18:37:26.182Z,96691.55
2018-10-06T18:39:56.667Z,96688.66
2018-10-06T18:42:26.412Z,96683.35
2018-10-06T18:44:56.295Z,96687.22
2018-10-06T18:47:25.568Z,96692.31
2018-10-06T18:49:55.883Z,96689.31
2018-10-06T18:52:25.938Z,96687.69
2018-10-06T18:54:56.565Z,96691.28
2018-10-06T18:57:26.227Z,96697.05
2018-10-06T18:59:56.444Z,96695.88
2018-10-06T19:02:26.460Z,96693.58
2018-10-06T19:04:55.571Z,96696.06
2018-10-06T19:07:26.095Z,96694.78
2018-10-06T19:09:55.794Z,96701.83
2018-10-06T19:12:25.524Z,96705.02
2018-10-06T19:14:54.611Z,96702.51
2018-10-06T19:17:24.078Z,96707.10
2018-10-06T19:19:53.444Z,96709.94
2018-10-06T19:22:24.303Z,96712.42
2018-10-06T19:24:54.530Z,96714.94
2018-10-06T19:27:23.925Z,96716.69
2018-10-06T19:29:53.402Z,96706.54
2018-10-06T19:32:23.262Z,96712.30
2018-10-06T19:34:52.731Z,96708.50
2018-10-06T19:37:22.605Z,96714.72
2018-10-06T19:39:53.388Z,96716.38
2018-10-06T19:42:22.861Z,96717.45
2018-10-06T19:44:52.360Z,96717.98
2018-10-06T19:47:21.009Z,96722.09
2018-10-06T19:49:50.921Z,96718.23
2018-10-06T19:52:20.159Z,96724.97
2018-10-06T19:54:49.931Z,96724.41
2018-10-06T19:57:18.998Z,96724.20
2018-10-06T19:59:49.107Z,96723.52
2018-10-06T20:02:19.545Z,96729.95
2018-10-06T20:04:49.676Z,96722.81
2018-10-06T20:07:18.875Z,96727.95
2018-10-06T20:09:49.551Z,96725.06
2018-10-06T20:12:18.258Z,96727.06
2018-10-06T20:14:47.115Z,96732.00
2018-10-06T20:17:15.727Z,96731.64
2018-10-06T20:19:45.232Z,96731.89
2018-10-06T20:22:16.249Z,96731.00
2018-10-06T20:24:47.820Z,96730.55
2018-10-06T20:27:19.970Z,96729.52
2018-10-06T20:29:51.174Z,96735.73
2018-10-06T20:32:22.070Z,96731.80
2018-10-06T20:34:53.808Z,96734.16
2018-10-06T20:37:26.696Z,96736.45
2018-10-06T20:39:55.624Z,96734.13
2018-10-06T20:42:24.183Z,96738.59
2018-10-06T20:44:53.224Z,96733.48
2018-10-06T20:47:21.825Z,96735.12
2018-10-06T20:49:50.534Z,96742.94
2018-10-06T20:52:19.256Z,96738.77
2018-10-06T20:54:47.860Z,96749.89
2018-10-06T20:57:16.425Z,96741.04
2018-10-06T20:59:45.086Z,96740.25
2018-10-06T21:02:13.696Z,96744.92
2018-10-06T21:04:42.271Z,96736.31
2018-10-06T21:07:10.932Z,96736.09
2018-10-06T21:09:39.520Z,96736.59
2018-10-06T21:12:08.393Z,96733.20
2018-10-06T21:14:37.104Z,96734.83
2018-10-06T21:17:05.683Z,96737.89
2018-10-06T21:19:34.303Z,96732.53
2018-10-06T21:22:02.985Z,96733.00
2018-10-06T21:24:31.579Z,96734.86
2018-10-06T21:27:00.183Z,96728.93
2018-10-06T21:29:28.979Z,96734.86
2018-10-06T21:31:57.442Z,96725.08
2018-10-06T21:34:26.031Z,96727.29
2018-10-06T21:36:54.752Z,96730.32
2018-10-06T21:39:23.352Z,96729.50
2018-10-06T21:41:51.943Z,96726.36
2018-10-06T21:44:20.892Z,96723.34
2018-10-06T21:46:49.480Z,96725.01
2018-10-06T21:49:18.037Z,96726.06
2018-10-06T21:51:46.674Z,96724.66
2018-10-06T21:54:15.253Z,96721.29
2018-10-06T21:56:44.403Z,96723.27
2018-10-06T21:59:13.259Z,96721.53
2018-10-06T22:01:41.816Z,96723.73
2018-10-06T22:04:10.524Z,96717.45
2018-10-06T22:06:39.306Z,96717.23
2018-10-06T22:09:08.108Z,96712.20
2018-10-06T22:11:36.887Z,96711.52
2018-10-06T22:14:06.314Z,96704.88
2018-10-06T22:16:34.904Z,96711.40
2018-10-06T22:19:03.475Z,96706.86
2018-10-06T22:21:32.163Z,96703.36
2018-10-06T22:24:00.803Z,96707.34
2018-10-06T22:26:29.477Z,96703.95
2018-10-06T22:28:58.084Z,96700.92
2018-10-06T22:31:27.118Z,96708.63
2018-10-06T22:33:55.784Z,96704.33
2018-10-06T22:36:24.802Z,96692.42
2018-10-06T22:38:53.569Z,96699.77
2018-10-06T22:41:22.187Z,96695.82
2018-10-06T22:43:51.812Z,96693.82
2018-10-06T22:46:20.547Z,96693.59
2018-10-06T22:48:49.127Z,96690.22
2018-10-06T22:51:17.820Z,96694.53
2018-10-06T22:53:46.415Z,96690.36
2018-10-06T22:56:14.983Z,96693.37
2018-10-06T22:58:43.816Z,96690.45
2018-10-06T23:01:12.676Z,96688.72
2018-10-06T23:03:41.699Z,96692.80
2018-10-06T23:06:10.364Z,96693.84
2018-10-06T23:08:39.051Z,96690.92
2018-10-06T23:11:07.683Z,96700.03
2018-10-06T23:13:36.387Z,96700.03
2018-10-06T23:16:04.992Z,96692.45
2018-10-06T23:18:33.740Z,96690.81
2018-10-06T23:21:02.415Z,96695.25
2018-10-06T23:23:31.053Z,96692.92
2018-10-06T23:25:59.763Z,96691.73
2018-10-06T23:28:29.285Z,96690.12
2018-10-06T23:30:58.079Z,96691.41
2018-10-06T23:33:26.658Z,96697.69
2018-10-06T23:35:55.284Z,96691.28
2018-10-06T23:38:24.552Z,96692.56
2018-10-06T23:40:53.172Z,96694.66
2018-10-06T23:43:22.056Z,96690.81
2018-10-06T23:45:50.832Z,96694.44
2018-10-06T23:48:19.429Z,96691.73
2018-10-06T23:50:48.047Z,96691.64
2018-10-06T23:53:16.650Z,96692.56
2018-10-06T23:55:45.240Z,96696.30
2018-10-06T23:58:14.264Z,96693.83
